Denver, Colorado
Current Conditions -  °F | °C
As of 8:58 PM on Friday 24 Oct 2014 (Local Time) from KBKF Reporting Station
Clear Clear  
Wind Chill: 53°   Ceiling: Unl
Heat Index: 53°   Visibility: 10mi
Dew Point: 29°   Wind: 9mph
Humidity: 40%   Direction: 170°S
Pressure: 30.22"   Gusts: NA
Location:  39.74°N, 104.99°W
Report Text: KBKF 250258Z 17008KT 10SM CLR 12/M02 A3022 RMK AO2A SLP189 T01161016 51013
Loading
Personal Weather Stations






























Interactive Weather Map New forecast layout! Learn more

10-Day Weather Forecast

Advertisements
Track Severe Weather on mobile